Livingston, AL (35470)

2:46 PM CDT on May 25, 2015 (GMT -0500)
Residential | | Change Station
CLOSE
Current Station
Personal Weather Station
Location: Cuba, AL
Elevation: 243 ft
Nearby Weather Stations

Elev 243 ft 32.43 °N, 88.38 °W | Updated 1 minute ago

Rain
Rain
74.6 °F
Feels Like 73 °F
N
1.0
Wind Variable Wind from SSE
Gusts 3.0 mph

Today
High -- | Low -- °F
--% Chance of Precip.
Yesterday
High -- | Low -- °F
Precip. -- in
5:48 AM 7:50 PM
Waxing Crescent, 51% visible
Pressure 30.16 in
Visibility 10.0 miles
Clouds Few 3500 ft
Mostly Cloudy 11000 ft
Heat Index 73 °F
Dew Point 72 °F
Humidity 93%
Rainfall 0.00 in
Snow Depth Not available.
UV 6 out of 12
Pollen 3.60 out of 12
Air Quality Not available.
Flu Activity Sporadic
METAR KNMM 251856Z AUTO 15007KT 10SM FEW035 BKN110 23/21 A3014 RMK AO2 RAE51 SLP213 P0001 T02330206 $

More Conditions Fewer Conditions

Pressure 30.16 in
Visibility 10.0 miles
Clouds Few 3500 ft
Mostly Cloudy 11000 ft
Heat Index 73 °F
Dew Point 72 °F
Humidity 93%
Rainfall 0.00 in
Snow Depth Not available.
UV 6 out of 12
Pollen 3.60 out of 12
Air Quality Not available.
Flu Activity Sporadic
METAR KNMM 251856Z AUTO 15007KT 10SM FEW035 BKN110 23/21 A3014 RMK AO2 RAE51 SLP213 P0001 T02330206 $

More Conditions Fewer Conditions

10-Day Weather Forecast

Almanac

Astronomy

May. 25, 2015 Rise Set
Actual Time
Civil Twilight
Nautical Twilight
Astronomical Twilight
Moon
Length of Visible Light
Length of Day
Tomorrow will be .
, % of the Moon is Illuminated

Today's Extremes

State Highs State Lows

Community

WunderPhotos

Upload Photos

1,824,102 photos uploaded!

WunderBlogs® & News

Nearby

Air Quality

  Air Quality AQ Index Pollutant
Not available.

Snow Depth

Station Depth Elevation

Earthquake Activity

City Distance Mag. Time & Date
Minimum magnitude displayed is 2.5.

Coastal Water Temperatures

Place Temperature

Stations

Nearby Weather Stations

Station Location Temp. Windchill Dew Point Humidity Wind Precip. Elev Updated Type